In Rescue
 
Open Full Screen Window  High Contrast Mode
Wind Gusting 15 knots
11
March 19, 2019 6:49 PM EDT
Weather Information
Wind Direction
  250 °
Wind Speed
  11 kt (13 mph)
Wind Gust
  15 kt (17 mph)
Altimeter
30.28 in
Visibility
10 SM
Temperature
08° C
46° F
Dewpoint
-05° C
23° F
Humidity
40%
Sky Condition
Scattered @ 6,000 ft
VFR

METAR KRNP 192249Z AUTO 25011G15KT 10SM SCT060 08/M05 A3028 RMK AO2 T00821049

FAA Disclaimer: The data displayed is for advisory purposes only and is not to be used for flight planning or operations.